Airfield :
LOGIN :

Register | Disclaimer

   EN    FR    IT 

 










Legend :    VFR   Marginal VFR   IFR   Intensive IFR   Very Intensive IFR
Visi :
Ceiling :
>= 8 km
>= 3000ft
5 to 8 km
1000 to 3000 ft
1500m to 5 km
500 to 1000 ft
800 to 1500m
200 to 500 ft
< 800m
< 200 ft
Symbols :   Thunderstorms  Fog  Heavy snow  Heavy precipitations  Wind > 20 kt
SIGMETs :     Misc.  Thunderstorms  Icing  Turbulence  Mountain Waves  Volcanic Ashes






- Airport Elevation : 13 ft
- IATA code : LYX


EGMD - Lydd

CURRENT METAR :
  • 021050Z AUTO 29010KT 9999 BKN033/// OVC039/// 10/05 Q1016

EXPIRED METARs :
  • 021020Z AUTO 29009KT 9999 SCT028/// OVC034/// 10/05 Q1016
  • 020950Z AUTO 28010KT 260V320 9999 BKN026/// BKN032/// 11/04 Q1016
  • 020920Z AUTO 28008KT 250V310 9999 FEW026/// BKN035/// 10/05 Q1017
  • 020850Z AUTO 28008KT 9999 BKN037/// 09/04 Q1017
  • 020820Z AUTO 28008KT 9999 OVC039/// 08/04 Q1017

Expired Forecast.
ATIS : +44 1797 322 422



MET'MAP, your aeronautical weather chart ! - Copyright ORBIFLY December 2007 - Disclaimer

ORBIFLY MET'MAP TEAM :

Programming & Development : Alexandra Zaïnal
Concept & original design : Baudouin d'Aumeries
Assistance for programming : Marc-Olivier Méhu
Technical & hardware support : Manuel Goepfert

Contact : metmap@orbifly.com




SOURCES & CREDITS :

   NOAA